sensor_id;sensor_type;location;lat;lon;timestamp;pressure;altitude;pressure_sealevel;temperature;humidity
73306;BME280;61530;51.158;0.880;2023-06-26T00:00:38;1012.18;;;17.625;25.9785
73306;BME280;61530;51.158;0.880;2023-06-26T00:01:38;1012.2;;;17.6875;25.7817
73306;BME280;61530;51.158;0.880;2023-06-26T00:02:39;1012.24;;;17.6875;25.8033
73306;BME280;61530;51.158;0.880;2023-06-26T00:03:39;1012.25;;;17.6875;26.7134
73306;BME280;61530;51.158;0.880;2023-06-26T00:04:42;1012.23;;;17.625;26.7306
73306;BME280;61530;51.158;0.880;2023-06-26T00:05:40;1012.25;;;17.625;26.2918
73306;BME280;61530;51.158;0.880;2023-06-26T00:06:41;1012.27;;;17.625;26.8166
73306;BME280;61530;51.158;0.880;2023-06-26T00:07:41;1012.29;;;17.625;26.0129
73306;BME280;61530;51.158;0.880;2023-06-26T00:08:42;1012.24;;;17.5625;26.8774
73306;BME280;61530;51.158;0.880;2023-06-26T00:09:42;1012.29;;;17.5625;25.9101
73306;BME280;61530;51.158;0.880;2023-06-26T00:10:43;1012.29;;;17.5625;25.9656
73306;BME280;61530;51.158;0.880;2023-06-26T00:11:43;1012.3;;;17.5;27.9336
73306;BME280;61530;51.158;0.880;2023-06-26T00:12:44;1012.3;;;17.4375;27.0739
73306;BME280;61530;51.158;0.880;2023-06-26T00:13:44;1012.29;;;17.5;26.7456
73306;BME280;61530;51.158;0.880;2023-06-26T00:14:46;1012.32;;;17.5625;26.5736
73306;BME280;61530;51.158;0.880;2023-06-26T00:15:47;1012.31;;;17.5625;26.4442
73306;BME280;61530;51.158;0.880;2023-06-26T00:16:47;1012.32;;;17.5625;27.0044
73306;BME280;61530;51.158;0.880;2023-06-26T00:17:48;1012.36;;;17.5625;26.4051
73306;BME280;61530;51.158;0.880;2023-06-26T00:18:48;1012.38;;;17.5;26.4046
73306;BME280;61530;51.158;0.880;2023-06-26T00:19:49;1012.4;;;17.5;26.2899
73306;BME280;61530;51.158;0.880;2023-06-26T00:20:50;1012.4;;;17.5;25.9177
73306;BME280;61530;51.158;0.880;2023-06-26T00:21:50;1012.39;;;17.4375;26.8343
73306;BME280;61530;51.158;0.880;2023-06-26T00:22:50;1012.39;;;17.4375;26.101
73306;BME280;61530;51.158;0.880;2023-06-26T00:23:51;1012.39;;;17.4375;26.0352
73306;BME280;61530;51.158;0.880;2023-06-26T00:24:51;1012.39;;;17.375;27.4214
73306;BME280;61530;51.158;0.880;2023-06-26T00:25:52;1012.4;;;17.375;26.6377
73306;BME280;61530;51.158;0.880;2023-06-26T00:26:52;1012.43;;;17.3125;26.0938
73306;BME280;61530;51.158;0.880;2023-06-26T00:27:53;1012.45;;;17.25;27.8507
73306;BME280;61530;51.158;0.880;2023-06-26T00:28:53;1012.45;;;17.3125;26.6728
73306;BME280;61530;51.158;0.880;2023-06-26T00:29:54;1012.5;;;17.25;26.1894
73306;BME280;61530;51.158;0.880;2023-06-26T00:30:54;1012.5;;;17.25;26.664
73306;BME280;61530;51.158;0.880;2023-06-26T00:31:55;1012.5;;;17.3125;26.1425
73306;BME280;61530;51.158;0.880;2023-06-26T00:32:55;1012.49;;;17.3125;27.0156
73306;BME280;61530;51.158;0.880;2023-06-26T00:33:56;1012.48;;;17.3125;26.2718
73306;BME280;61530;51.158;0.880;2023-06-26T00:34:56;1012.51;;;17.3125;27.2329
73306;BME280;61530;51.158;0.880;2023-06-26T00:35:57;1012.5;;;17.3125;26.3374
73306;BME280;61530;51.158;0.880;2023-06-26T00:36:57;1012.53;;;17.25;26.2097
73306;BME280;61530;51.158;0.880;2023-06-26T00:37:58;1012.55;;;17.25;26.3308
73306;BME280;61530;51.158;0.880;2023-06-26T00:38:59;1012.56;;;17.1875;26.3281
73306;BME280;61530;51.158;0.880;2023-06-26T00:39:59;1012.55;;;17.25;26.7826
73306;BME280;61530;51.158;0.880;2023-06-26T00:41:01;1012.54;;;17.125;26.6295
73306;BME280;61530;51.158;0.880;2023-06-26T00:42:03;1012.58;;;17.125;25.9586
73306;BME280;61530;51.158;0.880;2023-06-26T00:43:03;1012.58;;;17.125;27.3501
73306;BME280;61530;51.158;0.880;2023-06-26T00:44:04;1012.6;;;17.1875;26.604
73306;BME280;61530;51.158;0.880;2023-06-26T00:45:04;1012.57;;;17.125;26.5837
73306;BME280;61530;51.158;0.880;2023-06-26T00:46:05;1012.59;;;17.125;27.0598
73306;BME280;61530;51.158;0.880;2023-06-26T00:47:05;1012.62;;;17.0625;27.034
73306;BME280;61530;51.158;0.880;2023-06-26T00:48:06;1012.64;;;16.875;27.348
73306;BME280;61530;51.158;0.880;2023-06-26T00:49:06;1012.68;;;16.9375;27.4035
73306;BME280;61530;51.158;0.880;2023-06-26T00:50:07;1012.67;;;16.9375;27.4042
73306;BME280;61530;51.158;0.880;2023-06-26T00:51:07;1012.67;;;16.875;27.3934
73306;BME280;61530;51.158;0.880;2023-06-26T00:52:08;1012.64;;;16.9375;27.1985
73306;BME280;61530;51.158;0.880;2023-06-26T00:53:09;1012.65;;;16.9375;28.2495
73306;BME280;61530;51.158;0.880;2023-06-26T00:54:08;1012.68;;;17.0;27.312
73306;BME280;61530;51.158;0.880;2023-06-26T00:55:09;1012.71;;;16.9375;27.3574
73306;BME280;61530;51.158;0.880;2023-06-26T00:56:10;1012.71;;;17.0;27.5054
73306;BME280;61530;51.158;0.880;2023-06-26T00:57:10;1012.74;;;16.875;26.9043
73306;BME280;61530;51.158;0.880;2023-06-26T00:58:11;1012.72;;;16.9375;26.9854
73306;BME280;61530;51.158;0.880;2023-06-26T00:59:11;1012.72;;;16.875;28.3648
73306;BME280;61530;51.158;0.880;2023-06-26T01:00:13;1012.72;;;16.9375;26.7714
73306;BME280;61530;51.158;0.880;2023-06-26T01:01:12;1012.75;;;16.875;26.0533
73306;BME280;61530;51.158;0.880;2023-06-26T01:02:12;1012.74;;;16.9375;26.7528
73306;BME280;61530;51.158;0.880;2023-06-26T01:03:13;1012.74;;;16.875;28.1478
73306;BME280;61530;51.158;0.880;2023-06-26T01:04:13;1012.76;;;16.875;26.7565
73306;BME280;61530;51.158;0.880;2023-06-26T01:05:15;1012.76;;;16.8125;27.422
73306;BME280;61530;51.158;0.880;2023-06-26T01:06:15;1012.77;;;16.6875;28.4495
73306;BME280;61530;51.158;0.880;2023-06-26T01:07:35;1012.78;;;16.625;28.1161
73306;BME280;61530;51.158;0.880;2023-06-26T01:08:16;1012.81;;;16.625;28.0089
73306;BME280;61530;51.158;0.880;2023-06-26T01:09:18;1012.81;;;16.5;28.2307
73306;BME280;61530;51.158;0.880;2023-06-26T01:10:17;1012.83;;;16.6875;27.7791
73306;BME280;61530;51.158;0.880;2023-06-26T01:11:18;1012.84;;;16.625;27.7972
73306;BME280;61530;51.158;0.880;2023-06-26T01:12:17;1012.82;;;16.6875;28.1958
73306;BME280;61530;51.158;0.880;2023-06-26T01:13:18;1012.84;;;16.625;27.0517
73306;BME280;61530;51.158;0.880;2023-06-26T01:14:18;1012.85;;;16.625;28.2388
73306;BME280;61530;51.158;0.880;2023-06-26T01:15:19;1012.85;;;16.625;28.0443
73306;BME280;61530;51.158;0.880;2023-06-26T01:16:21;1012.87;;;16.625;28.191
73306;BME280;61530;51.158;0.880;2023-06-26T01:17:21;1012.89;;;16.6875;28.2682
73306;BME280;61530;51.158;0.880;2023-06-26T01:18:20;1012.9;;;16.6875;28.4111
73306;BME280;61530;51.158;0.880;2023-06-26T01:19:24;1012.93;;;16.625;28.0471
73306;BME280;61530;51.158;0.880;2023-06-26T01:20:21;1012.94;;;16.625;28.1946
73306;BME280;61530;51.158;0.880;2023-06-26T01:21:22;1012.9;;;16.6875;28.0616
73306;BME280;61530;51.158;0.880;2023-06-26T01:22:28;1012.87;;;16.6875;27.8132
73306;BME280;61530;51.158;0.880;2023-06-26T01:23:29;1012.87;;;16.6875;28.1651
73306;BME280;61530;51.158;0.880;2023-06-26T01:24:27;1012.92;;;16.625;27.8436
73306;BME280;61530;51.158;0.880;2023-06-26T01:25:32;1012.9;;;16.625;27.5078
73306;BME280;61530;51.158;0.880;2023-06-26T01:26:28;1012.93;;;16.5;28.3519
73306;BME280;61530;51.158;0.880;2023-06-26T01:27:26;1012.94;;;16.4375;27.9975
73306;BME280;61530;51.158;0.880;2023-06-26T01:28:26;1012.96;;;16.5625;28.6142
73306;BME280;61530;51.158;0.880;2023-06-26T01:29:26;1012.96;;;16.5625;27.8509
73306;BME280;61530;51.158;0.880;2023-06-26T01:30:28;1012.96;;;16.625;27.7103
73306;BME280;61530;51.158;0.880;2023-06-26T01:31:28;1012.99;;;16.6875;28.4405
73306;BME280;61530;51.158;0.880;2023-06-26T01:32:29;1012.99;;;16.625;28.8697
73306;BME280;61530;51.158;0.880;2023-06-26T01:33:28;1013.01;;;16.625;27.9257
73306;BME280;61530;51.158;0.880;2023-06-26T01:34:30;1013.01;;;16.625;27.5955
73306;BME280;61530;51.158;0.880;2023-06-26T01:35:29;1013.03;;;16.625;28.79
73306;BME280;61530;51.158;0.880;2023-06-26T01:36:29;1013.0;;;16.625;28.8682
73306;BME280;61530;51.158;0.880;2023-06-26T01:37:30;1013.0;;;16.6875;28.3936
73306;BME280;61530;51.158;0.880;2023-06-26T01:38:30;1013.01;;;16.625;28.22
73306;BME280;61530;51.158;0.880;2023-06-26T01:39:31;1013.01;;;16.6875;28.3475
73306;BME280;61530;51.158;0.880;2023-06-26T01:40:31;1013.02;;;16.625;27.5295
73306;BME280;61530;51.158;0.880;2023-06-26T01:41:32;1013.05;;;16.625;28.1391
73306;BME280;61530;51.158;0.880;2023-06-26T01:42:33;1013.09;;;16.5;28.8068
73306;BME280;61530;51.158;0.880;2023-06-26T01:43:42;1013.11;;;16.5;28.2376
73306;BME280;61530;51.158;0.880;2023-06-26T01:44:37;1013.13;;;16.5;27.8157
73306;BME280;61530;51.158;0.880;2023-06-26T01:45:34;1013.12;;;16.375;27.7555
73306;BME280;61530;51.158;0.880;2023-06-26T01:46:40;1013.13;;;16.5;27.9086
73306;BME280;61530;51.158;0.880;2023-06-26T01:47:37;1013.15;;;16.5;28.214
73306;BME280;61530;51.158;0.880;2023-06-26T01:48:43;1013.14;;;16.4375;27.704
73306;BME280;61530;51.158;0.880;2023-06-26T01:49:45;1013.15;;;16.4375;27.8113
73306;BME280;61530;51.158;0.880;2023-06-26T01:50:37;1013.16;;;16.375;28.1308
73306;BME280;61530;51.158;0.880;2023-06-26T01:51:42;1013.15;;;16.375;28.369
73306;BME280;61530;51.158;0.880;2023-06-26T01:52:41;1013.15;;;16.3125;28.4195
73306;BME280;61530;51.158;0.880;2023-06-26T01:53:42;1013.15;;;16.375;28.1395
73306;BME280;61530;51.158;0.880;2023-06-26T01:54:45;1013.17;;;16.375;27.7198
73306;BME280;61530;51.158;0.880;2023-06-26T01:55:43;1013.2;;;16.375;28.1911
73306;BME280;61530;51.158;0.880;2023-06-26T01:56:40;1013.22;;;16.25;28.3724
73306;BME280;61530;51.158;0.880;2023-06-26T01:57:46;1013.25;;;16.3125;28.835
73306;BME280;61530;51.158;0.880;2023-06-26T01:58:47;1013.24;;;16.25;28.4361
73306;BME280;61530;51.158;0.880;2023-06-26T01:59:46;1013.24;;;16.25;28.7238
73306;BME280;61530;51.158;0.880;2023-06-26T02:00:46;1013.25;;;16.3125;28.9119
73306;BME280;61530;51.158;0.880;2023-06-26T02:01:46;1013.24;;;16.375;28.9694
73306;BME280;61530;51.158;0.880;2023-06-26T02:02:46;1013.27;;;16.375;28.2896
73306;BME280;61530;51.158;0.880;2023-06-26T02:03:47;1013.24;;;16.375;28.2679
73306;BME280;61530;51.158;0.880;2023-06-26T02:04:47;1013.24;;;16.375;28.768
73306;BME280;61530;51.158;0.880;2023-06-26T02:05:48;1013.22;;;16.3125;28.1406
73306;BME280;61530;51.158;0.880;2023-06-26T02:06:48;1013.25;;;16.3125;28.7006
73306;BME280;61530;51.158;0.880;2023-06-26T02:07:49;1013.23;;;16.3125;29.2298
73306;BME280;61530;51.158;0.880;2023-06-26T02:08:49;1013.25;;;16.375;28.9344
73306;BME280;61530;51.158;0.880;2023-06-26T02:09:50;1013.25;;;16.3125;29.302
73306;BME280;61530;51.158;0.880;2023-06-26T02:10:50;1013.27;;;16.25;29.872
73306;BME280;61530;51.158;0.880;2023-06-26T02:11:51;1013.24;;;16.25;29.8605
73306;BME280;61530;51.158;0.880;2023-06-26T02:12:51;1013.26;;;16.1875;30.285
73306;BME280;61530;51.158;0.880;2023-06-26T02:13:52;1013.24;;;16.3125;30.1138
73306;BME280;61530;51.158;0.880;2023-06-26T02:14:52;1013.27;;;16.1875;29.0282
73306;BME280;61530;51.158;0.880;2023-06-26T02:15:53;1013.27;;;16.1875;29.781
73306;BME280;61530;51.158;0.880;2023-06-26T02:16:53;1013.29;;;16.1875;29.7409
73306;BME280;61530;51.158;0.880;2023-06-26T02:17:54;1013.26;;;16.125;30.2469
73306;BME280;61530;51.158;0.880;2023-06-26T02:18:54;1013.28;;;16.0;29.7094
73306;BME280;61530;51.158;0.880;2023-06-26T02:19:55;1013.26;;;16.0625;30.1066
73306;BME280;61530;51.158;0.880;2023-06-26T02:20:55;1013.27;;;16.125;29.3854
73306;BME280;61530;51.158;0.880;2023-06-26T02:21:56;1013.28;;;16.1875;30.0287
73306;BME280;61530;51.158;0.880;2023-06-26T02:22:56;1013.3;;;16.1875;29.1259
73306;BME280;61530;51.158;0.880;2023-06-26T02:23:57;1013.3;;;16.25;29.5296
73306;BME280;61530;51.158;0.880;2023-06-26T02:24:57;1013.34;;;16.1875;30.0066
73306;BME280;61530;51.158;0.880;2023-06-26T02:25:58;1013.39;;;16.25;29.1919
73306;BME280;61530;51.158;0.880;2023-06-26T02:26:58;1013.35;;;16.25;29.2497
73306;BME280;61530;51.158;0.880;2023-06-26T02:27:59;1013.37;;;16.3125;29.582
73306;BME280;61530;51.158;0.880;2023-06-26T02:28:59;1013.41;;;16.3125;29.1589
73306;BME280;61530;51.158;0.880;2023-06-26T02:30:00;1013.4;;;16.3125;30.1465
73306;BME280;61530;51.158;0.880;2023-06-26T02:31:00;1013.43;;;16.125;29.9093
73306;BME280;61530;51.158;0.880;2023-06-26T02:32:01;1013.42;;;16.125;29.6922
73306;BME280;61530;51.158;0.880;2023-06-26T02:33:01;1013.42;;;16.0;29.1189
73306;BME280;61530;51.158;0.880;2023-06-26T02:34:02;1013.44;;;15.8125;30.6006
73306;BME280;61530;51.158;0.880;2023-06-26T02:35:03;1013.41;;;15.8125;30.4514
73306;BME280;61530;51.158;0.880;2023-06-26T02:36:03;1013.43;;;15.75;30.3251
73306;BME280;61530;51.158;0.880;2023-06-26T02:37:04;1013.43;;;15.875;29.941
73306;BME280;61530;51.158;0.880;2023-06-26T02:38:04;1013.46;;;15.9375;30.7162
73306;BME280;61530;51.158;0.880;2023-06-26T02:39:04;1013.49;;;15.8125;31.3246
73306;BME280;61530;51.158;0.880;2023-06-26T02:40:05;1013.51;;;15.8125;30.6813
73306;BME280;61530;51.158;0.880;2023-06-26T02:41:05;1013.51;;;15.8125;30.6453
73306;BME280;61530;51.158;0.880;2023-06-26T02:42:06;1013.53;;;15.75;31.1265
73306;BME280;61530;51.158;0.880;2023-06-26T02:43:07;1013.56;;;15.8125;30.5273
73306;BME280;61530;51.158;0.880;2023-06-26T02:44:07;1013.56;;;15.875;30.3255
73306;BME280;61530;51.158;0.880;2023-06-26T02:45:09;1013.57;;;15.8125;29.8392
73306;BME280;61530;51.158;0.880;2023-06-26T02:46:08;1013.57;;;15.8125;30.3609
73306;BME280;61530;51.158;0.880;2023-06-26T02:47:08;1013.58;;;15.8125;30.6811
73306;BME280;61530;51.158;0.880;2023-06-26T02:48:09;1013.56;;;15.75;30.5064
73306;BME280;61530;51.158;0.880;2023-06-26T02:49:09;1013.6;;;15.75;30.9181
73306;BME280;61530;51.158;0.880;2023-06-26T02:50:10;1013.6;;;15.75;30.6173
73306;BME280;61530;51.158;0.880;2023-06-26T02:51:10;1013.62;;;15.6875;30.5036
73306;BME280;61530;51.158;0.880;2023-06-26T02:52:11;1013.63;;;15.75;30.9758
73306;BME280;61530;51.158;0.880;2023-06-26T02:53:12;1013.66;;;15.8125;30.2653
73306;BME280;61530;51.158;0.880;2023-06-26T02:54:12;1013.66;;;15.75;30.7773
73306;BME280;61530;51.158;0.880;2023-06-26T02:55:12;1013.67;;;15.875;30.193
73306;BME280;61530;51.158;0.880;2023-06-26T02:56:13;1013.68;;;15.8125;30.4246
73306;BME280;61530;51.158;0.880;2023-06-26T02:57:13;1013.68;;;15.75;30.3775
73306;BME280;61530;51.158;0.880;2023-06-26T02:58:14;1013.67;;;15.875;30.3449
73306;BME280;61530;51.158;0.880;2023-06-26T02:59:14;1013.66;;;15.8125;30.3173
73306;BME280;61530;51.158;0.880;2023-06-26T03:00:15;1013.69;;;15.8125;30.8324
73306;BME280;61530;51.158;0.880;2023-06-26T03:01:15;1013.7;;;15.8125;30.215
73306;BME280;61530;51.158;0.880;2023-06-26T03:02:16;1013.68;;;15.8125;30.1546
73306;BME280;61530;51.158;0.880;2023-06-26T03:03:16;1013.69;;;15.8125;30.3092
73306;BME280;61530;51.158;0.880;2023-06-26T03:04:17;1013.72;;;15.875;29.4652
73306;BME280;61530;51.158;0.880;2023-06-26T03:05:18;1013.72;;;15.875;29.9797
73306;BME280;61530;51.158;0.880;2023-06-26T03:06:18;1013.75;;;15.9375;30.1266
73306;BME280;61530;51.158;0.880;2023-06-26T03:07:18;1013.75;;;15.875;31.0867
73306;BME280;61530;51.158;0.880;2023-06-26T03:08:19;1013.77;;;15.9375;30.1036
73306;BME280;61530;51.158;0.880;2023-06-26T03:09:19;1013.78;;;15.875;30.8568
73306;BME280;61530;51.158;0.880;2023-06-26T03:10:20;1013.79;;;15.8125;30.7755
73306;BME280;61530;51.158;0.880;2023-06-26T03:11:20;1013.78;;;15.8125;30.5547
73306;BME280;61530;51.158;0.880;2023-06-26T03:12:21;1013.78;;;15.8125;30.6153
73306;BME280;61530;51.158;0.880;2023-06-26T03:13:21;1013.78;;;15.875;30.1064
73306;BME280;61530;51.158;0.880;2023-06-26T03:14:22;1013.77;;;15.75;31.2057
73306;BME280;61530;51.158;0.880;2023-06-26T03:15:22;1013.76;;;15.875;30.7016
73306;BME280;61530;51.158;0.880;2023-06-26T03:16:23;1013.75;;;15.8125;31.1022
73306;BME280;61530;51.158;0.880;2023-06-26T03:17:23;1013.75;;;15.8125;31.1127
73306;BME280;61530;51.158;0.880;2023-06-26T03:18:24;1013.74;;;15.875;31.0111
73306;BME280;61530;51.158;0.880;2023-06-26T03:19:24;1013.77;;;15.9375;30.2919
73306;BME280;61530;51.158;0.880;2023-06-26T03:20:25;1013.75;;;15.9375;30.6695
73306;BME280;61530;51.158;0.880;2023-06-26T03:21:25;1013.78;;;15.9375;30.5658
73306;BME280;61530;51.158;0.880;2023-06-26T03:22:26;1013.79;;;15.9375;30.7439
73306;BME280;61530;51.158;0.880;2023-06-26T03:23:26;1013.8;;;15.875;32.7079
73306;BME280;61530;51.158;0.880;2023-06-26T03:24:27;1013.81;;;15.875;30.6357
73306;BME280;61530;51.158;0.880;2023-06-26T03:25:27;1013.82;;;15.75;31.087
73306;BME280;61530;51.158;0.880;2023-06-26T03:26:28;1013.84;;;15.8125;31.4164
73306;BME280;61530;51.158;0.880;2023-06-26T03:27:28;1013.86;;;15.875;31.0366
73306;BME280;61530;51.158;0.880;2023-06-26T03:28:29;1013.86;;;15.9375;30.8149
73306;BME280;61530;51.158;0.880;2023-06-26T03:29:29;1013.85;;;15.875;30.5111
73306;BME280;61530;51.158;0.880;2023-06-26T03:30:30;1013.85;;;15.875;30.2585
73306;BME280;61530;51.158;0.880;2023-06-26T03:31:30;1013.84;;;15.8125;30.421
73306;BME280;61530;51.158;0.880;2023-06-26T03:32:31;1013.82;;;15.8125;30.9012
73306;BME280;61530;51.158;0.880;2023-06-26T03:33:31;1013.83;;;15.8125;30.8427
73306;BME280;61530;51.158;0.880;2023-06-26T03:34:32;1013.83;;;15.75;31.7991
73306;BME280;61530;51.158;0.880;2023-06-26T03:35:32;1013.82;;;15.6875;31.4202
73306;BME280;61530;51.158;0.880;2023-06-26T03:36:33;1013.84;;;15.625;31.2097
73306;BME280;61530;51.158;0.880;2023-06-26T03:37:33;1013.86;;;15.625;31.815
73306;BME280;61530;51.158;0.880;2023-06-26T03:38:34;1013.86;;;15.5625;31.7385
73306;BME280;61530;51.158;0.880;2023-06-26T03:39:34;1013.89;;;15.5625;31.6292
73306;BME280;61530;51.158;0.880;2023-06-26T03:40:35;1013.91;;;15.5;32.2172
73306;BME280;61530;51.158;0.880;2023-06-26T03:41:35;1013.93;;;15.5625;31.7544
73306;BME280;61530;51.158;0.880;2023-06-26T03:42:36;1013.93;;;15.5625;31.8734
73306;BME280;61530;51.158;0.880;2023-06-26T03:43:36;1013.91;;;15.5625;31.8176
73306;BME280;61530;51.158;0.880;2023-06-26T03:44:37;1013.88;;;15.625;31.5161
73306;BME280;61530;51.158;0.880;2023-06-26T03:45:37;1013.89;;;15.5625;31.2342
73306;BME280;61530;51.158;0.880;2023-06-26T03:46:38;1013.89;;;15.5625;31.9839
73306;BME280;61530;51.158;0.880;2023-06-26T03:47:38;1013.89;;;15.5625;32.0549
73306;BME280;61530;51.158;0.880;2023-06-26T03:48:39;1013.91;;;15.625;32.256
73306;BME280;61530;51.158;0.880;2023-06-26T03:49:39;1013.9;;;15.5625;33.3369
73306;BME280;61530;51.158;0.880;2023-06-26T03:50:40;1013.9;;;15.5;32.6546
73306;BME280;61530;51.158;0.880;2023-06-26T03:51:40;1013.9;;;15.4375;32.2943
73306;BME280;61530;51.158;0.880;2023-06-26T03:52:41;1013.94;;;15.4375;31.5823
73306;BME280;61530;51.158;0.880;2023-06-26T03:53:41;1013.94;;;15.4375;31.8055
73306;BME280;61530;51.158;0.880;2023-06-26T03:54:42;1013.97;;;15.4375;31.8942
73306;BME280;61530;51.158;0.880;2023-06-26T03:55:42;1014.0;;;15.5;31.2952
73306;BME280;61530;51.158;0.880;2023-06-26T03:56:43;1014.03;;;15.5;31.8354
73306;BME280;61530;51.158;0.880;2023-06-26T03:57:43;1014.05;;;15.5;32.1437
73306;BME280;61530;51.158;0.880;2023-06-26T03:58:44;1014.05;;;15.5625;31.2995
73306;BME280;61530;51.158;0.880;2023-06-26T03:59:44;1014.06;;;15.5625;31.4998
73306;BME280;61530;51.158;0.880;2023-06-26T04:00:45;1014.04;;;15.75;31.9139
73306;BME280;61530;51.158;0.880;2023-06-26T04:01:45;1014.04;;;15.6875;31.716
73306;BME280;61530;51.158;0.880;2023-06-26T04:02:46;1014.08;;;15.5625;31.694
73306;BME280;61530;51.158;0.880;2023-06-26T04:03:46;1014.1;;;15.625;31.9578
73306;BME280;61530;51.158;0.880;2023-06-26T04:04:47;1014.1;;;15.6875;31.8015
73306;BME280;61530;51.158;0.880;2023-06-26T04:05:47;1014.13;;;15.75;31.5216
73306;BME280;61530;51.158;0.880;2023-06-26T04:06:48;1014.16;;;15.75;31.9274
73306;BME280;61530;51.158;0.880;2023-06-26T04:07:50;1014.19;;;15.75;31.7327
73306;BME280;61530;51.158;0.880;2023-06-26T04:08:49;1014.18;;;15.75;31.4024
73306;BME280;61530;51.158;0.880;2023-06-26T04:09:49;1014.2;;;15.75;32.0844
73306;BME280;61530;51.158;0.880;2023-06-26T04:10:50;1014.19;;;15.75;31.9843
73306;BME280;61530;51.158;0.880;2023-06-26T04:11:50;1014.25;;;15.625;32.4326
73306;BME280;61530;51.158;0.880;2023-06-26T04:12:51;1014.24;;;15.4375;32.8047
73306;BME280;61530;51.158;0.880;2023-06-26T04:13:51;1014.25;;;15.4375;32.4082
73306;BME280;61530;51.158;0.880;2023-06-26T04:14:52;1014.24;;;15.4375;32.5921
73306;BME280;61530;51.158;0.880;2023-06-26T04:15:52;1014.23;;;15.5;32.4949
73306;BME280;61530;51.158;0.880;2023-06-26T04:16:53;1014.22;;;15.5625;31.9771
73306;BME280;61530;51.158;0.880;2023-06-26T04:17:53;1014.21;;;15.5625;32.7094
73306;BME280;61530;51.158;0.880;2023-06-26T04:18:54;1014.19;;;15.5625;32.8823
73306;BME280;61530;51.158;0.880;2023-06-26T04:19:54;1014.21;;;15.625;32.6124
73306;BME280;61530;51.158;0.880;2023-06-26T04:21:12;1014.23;;;15.6875;31.8516
73306;BME280;61530;51.158;0.880;2023-06-26T04:21:56;1014.23;;;15.5625;32.0868
73306;BME280;61530;51.158;0.880;2023-06-26T04:22:56;1014.25;;;15.625;32.1108
73306;BME280;61530;51.158;0.880;2023-06-26T04:23:57;1014.28;;;15.5625;32.721
73306;BME280;61530;51.158;0.880;2023-06-26T04:24:57;1014.31;;;15.5625;31.4351
73306;BME280;61530;51.158;0.880;2023-06-26T04:25:58;1014.34;;;15.5;32.5756
73306;BME280;61530;51.158;0.880;2023-06-26T04:26:58;1014.36;;;15.4375;32.6646
73306;BME280;61530;51.158;0.880;2023-06-26T04:28:00;1014.34;;;15.4375;33.0901
73306;BME280;61530;51.158;0.880;2023-06-26T04:29:01;1014.33;;;15.5;32.1307
73306;BME280;61530;51.158;0.880;2023-06-26T04:30:02;1014.34;;;15.5625;31.7343
73306;BME280;61530;51.158;0.880;2023-06-26T04:31:03;1014.35;;;15.4375;32.3339
73306;BME280;61530;51.158;0.880;2023-06-26T04:32:03;1014.36;;;15.375;33.0839
73306;BME280;61530;51.158;0.880;2023-06-26T04:33:03;1014.38;;;15.4375;31.8915
73306;BME280;61530;51.158;0.880;2023-06-26T04:34:04;1014.4;;;15.5625;32.1058
73306;BME280;61530;51.158;0.880;2023-06-26T04:35:04;1014.36;;;15.5;32.2829
73306;BME280;61530;51.158;0.880;2023-06-26T04:36:05;1014.35;;;15.5;32.3333
73306;BME280;61530;51.158;0.880;2023-06-26T04:37:05;1014.36;;;15.5;32.3254
73306;BME280;61530;51.158;0.880;2023-06-26T04:38:05;1014.32;;;15.4375;32.731
73306;BME280;61530;51.158;0.880;2023-06-26T04:39:08;1014.33;;;15.4375;32.9659
73306;BME280;61530;51.158;0.880;2023-06-26T04:40:09;1014.37;;;15.3125;33.5675
73306;BME280;61530;51.158;0.880;2023-06-26T04:41:09;1014.37;;;15.375;33.1426
73306;BME280;61530;51.158;0.880;2023-06-26T04:42:11;1014.42;;;15.375;33.3071
73306;BME280;61530;51.158;0.880;2023-06-26T04:43:11;1014.41;;;15.375;33.052
73306;BME280;61530;51.158;0.880;2023-06-26T04:44:12;1014.43;;;15.375;33.5557
73306;BME280;61530;51.158;0.880;2023-06-26T04:45:12;1014.46;;;15.5625;33.482
73306;BME280;61530;51.158;0.880;2023-06-26T04:46:12;1014.48;;;15.5625;32.7558
73306;BME280;61530;51.158;0.880;2023-06-26T04:47:13;1014.5;;;15.625;33.274
73306;BME280;61530;51.158;0.880;2023-06-26T04:48:13;1014.5;;;15.6875;32.8947
73306;BME280;61530;51.158;0.880;2023-06-26T04:49:14;1014.54;;;15.6875;32.3439
73306;BME280;61530;51.158;0.880;2023-06-26T04:50:15;1014.56;;;15.75;32.5598
73306;BME280;61530;51.158;0.880;2023-06-26T04:51:15;1014.59;;;15.8125;32.6565
73306;BME280;61530;51.158;0.880;2023-06-26T04:52:17;1014.59;;;15.8125;32.5577
73306;BME280;61530;51.158;0.880;2023-06-26T04:53:17;1014.64;;;15.8125;32.2607
73306;BME280;61530;51.158;0.880;2023-06-26T04:54:18;1014.62;;;15.75;32.189
73306;BME280;61530;51.158;0.880;2023-06-26T04:55:18;1014.65;;;15.75;33.0168
73306;BME280;61530;51.158;0.880;2023-06-26T04:56:20;1014.63;;;15.6875;32.6616
73306;BME280;61530;51.158;0.880;2023-06-26T04:57:20;1014.63;;;15.6875;33.3875
73306;BME280;61530;51.158;0.880;2023-06-26T04:58:21;1014.59;;;15.75;32.9571
73306;BME280;61530;51.158;0.880;2023-06-26T04:59:21;1014.62;;;15.8125;32.3811
73306;BME280;61530;51.158;0.880;2023-06-26T05:00:22;1014.62;;;15.75;33.4555
73306;BME280;61530;51.158;0.880;2023-06-26T05:01:22;1014.67;;;15.8125;32.2605
73306;BME280;61530;51.158;0.880;2023-06-26T05:02:23;1014.62;;;15.8125;32.3826
73306;BME280;61530;51.158;0.880;2023-06-26T05:03:23;1014.62;;;15.6875;33.8483
73306;BME280;61530;51.158;0.880;2023-06-26T05:04:24;1014.64;;;15.75;33.2437
73306;BME280;61530;51.158;0.880;2023-06-26T05:05:24;1014.63;;;15.625;33.8649
73306;BME280;61530;51.158;0.880;2023-06-26T05:06:25;1014.64;;;15.6875;33.9152
73306;BME280;61530;51.158;0.880;2023-06-26T05:07:25;1014.66;;;15.625;33.0604
73306;BME280;61530;51.158;0.880;2023-06-26T05:08:26;1014.66;;;15.6875;33.7778
73306;BME280;61530;51.158;0.880;2023-06-26T05:09:26;1014.65;;;15.625;33.3522
73306;BME280;61530;51.158;0.880;2023-06-26T05:10:27;1014.68;;;15.625;33.3092
73306;BME280;61530;51.158;0.880;2023-06-26T05:11:27;1014.7;;;15.6875;33.7901
73306;BME280;61530;51.158;0.880;2023-06-26T05:12:28;1014.7;;;15.6875;33.4463